Kezdőlap
METAR-TAF:

METAR-TAF

Repülőterek :

La Junta Municipal Airport

La Junta, Colorado, Amerikai Egyesült Államok

földrajzi szélesség: 38-02-58N, földrajzi hosszúság: 103-30-44W, magasság: 1288 m

Jelenlegi meteorológiai megfigyelések

A jelentés 21 perccel ezelõtt készült, 19:53 UTC
Észak-északnyugati szél 6 kt
Hőmérséklet 4°C
Páratartalom 56%
Légköri nyomás 1021 hPa
Látótávolság: 16.1 km
Borult 2800 lábon

METAR: KLHX 191953Z AUTO 34006KT 10SM OVC028 04/M04 A3016 RMK AO2 SLP216 T00441039

Idő: 13:14 (20:14 UTC)


TAF: hiányzik

Meteorológiai megfigyelések és előrejelzések több, mint 4000 repülőtéren (METAR és TAF jelentéseket).

A térképen piros és sárga pontok jelzik az elérhető meteorológiai állomásokat.

Mozgassa az egeret a pont fölött, hogy megjelenjen az állomás neve.

Azután kattintson az időjárási megfigyelések és előrejelzések megtekintéséhez.

A térkép megváltoztatása: kattintson a fekete keresztel jelölt zöld gombra ráközelítéshez, a vonallal jelölt zöld gombra távolításhoz, vagy a zöld nyilakra a szomszédos térképek eléréséhez.


METAR-TAF: